sensor_id;sensor_type;location;lat;lon;timestamp;temperature;humidity
1786;DHT22;890;48.158;11.540;2023-09-19T00:00:20;19.50;86.30
1786;DHT22;890;48.158;11.540;2023-09-19T00:02:55;19.60;87.10
1786;DHT22;890;48.158;11.540;2023-09-19T00:05:28;19.60;85.90
1786;DHT22;890;48.158;11.540;2023-09-19T00:07:55;19.70;85.80
1786;DHT22;890;48.158;11.540;2023-09-19T00:10:27;19.60;85.40
1786;DHT22;890;48.158;11.540;2023-09-19T00:12:59;19.80;85.40
1786;DHT22;890;48.158;11.540;2023-09-19T00:15:26;19.70;84.80
1786;DHT22;890;48.158;11.540;2023-09-19T00:17:54;19.80;85.00
1786;DHT22;890;48.158;11.540;2023-09-19T00:20:21;19.80;84.50
1786;DHT22;890;48.158;11.540;2023-09-19T00:22:49;19.80;84.10
1786;DHT22;890;48.158;11.540;2023-09-19T00:25:17;19.80;83.70
1786;DHT22;890;48.158;11.540;2023-09-19T00:27:43;19.90;84.00
1786;DHT22;890;48.158;11.540;2023-09-19T00:30:11;19.90;83.60
1786;DHT22;890;48.158;11.540;2023-09-19T00:32:42;19.90;83.30
1786;DHT22;890;48.158;11.540;2023-09-19T00:35:08;19.90;83.10
1786;DHT22;890;48.158;11.540;2023-09-19T00:37:37;19.90;83.60
1786;DHT22;890;48.158;11.540;2023-09-19T00:40:06;19.80;83.30
1786;DHT22;890;48.158;11.540;2023-09-19T00:42:32;19.80;83.20
1786;DHT22;890;48.158;11.540;2023-09-19T00:44:59;19.80;83.20
1786;DHT22;890;48.158;11.540;2023-09-19T00:47:28;19.90;83.20
1786;DHT22;890;48.158;11.540;2023-09-19T00:49:55;19.90;83.20
1786;DHT22;890;48.158;11.540;2023-09-19T00:52:21;19.90;83.20
1786;DHT22;890;48.158;11.540;2023-09-19T00:54:49;19.90;83.50
1786;DHT22;890;48.158;11.540;2023-09-19T00:57:15;19.80;83.80
1786;DHT22;890;48.158;11.540;2023-09-19T00:59:54;19.70;84.80
1786;DHT22;890;48.158;11.540;2023-09-19T01:02:20;19.60;84.10
1786;DHT22;890;48.158;11.540;2023-09-19T01:04:46;19.70;84.20
1786;DHT22;890;48.158;11.540;2023-09-19T01:07:12;19.80;84.10
1786;DHT22;890;48.158;11.540;2023-09-19T01:09:40;19.70;84.10
1786;DHT22;890;48.158;11.540;2023-09-19T01:12:07;19.80;84.00
1786;DHT22;890;48.158;11.540;2023-09-19T01:30:56;19.20;84.50
1786;DHT22;890;48.158;11.540;2023-09-19T01:33:23;19.20;85.10
1786;DHT22;890;48.158;11.540;2023-09-19T01:35:49;19.20;85.50
1786;DHT22;890;48.158;11.540;2023-09-19T01:38:16;19.20;85.70
1786;DHT22;890;48.158;11.540;2023-09-19T01:40:43;19.10;85.80
1786;DHT22;890;48.158;11.540;2023-09-19T01:43:36;19.10;86.00
1786;DHT22;890;48.158;11.540;2023-09-19T01:46:30;19.10;86.40
1786;DHT22;890;48.158;11.540;2023-09-19T01:51:49;19.00;85.90
1786;DHT22;890;48.158;11.540;2023-09-19T01:54:23;19.00;85.90
1786;DHT22;890;48.158;11.540;2023-09-19T01:59:53;19.00;85.90
1786;DHT22;890;48.158;11.540;2023-09-19T02:02:22;19.10;85.80
1786;DHT22;890;48.158;11.540;2023-09-19T02:04:49;19.20;85.30
1786;DHT22;890;48.158;11.540;2023-09-19T02:07:16;19.10;85.30
1786;DHT22;890;48.158;11.540;2023-09-19T02:09:42;19.10;85.50
1786;DHT22;890;48.158;11.540;2023-09-19T02:12:09;19.10;85.40
1786;DHT22;890;48.158;11.540;2023-09-19T02:14:35;19.10;85.30
1786;DHT22;890;48.158;11.540;2023-09-19T02:17:02;19.10;85.60
1786;DHT22;890;48.158;11.540;2023-09-19T02:19:36;19.20;85.20
1786;DHT22;890;48.158;11.540;2023-09-19T02:22:04;19.20;85.10
1786;DHT22;890;48.158;11.540;2023-09-19T02:24:33;19.30;85.00
1786;DHT22;890;48.158;11.540;2023-09-19T02:26:59;19.40;84.70
1786;DHT22;890;48.158;11.540;2023-09-19T02:29:29;19.40;84.80
1786;DHT22;890;48.158;11.540;2023-09-19T02:31:55;19.40;84.50
1786;DHT22;890;48.158;11.540;2023-09-19T02:34:21;19.30;84.50
1786;DHT22;890;48.158;11.540;2023-09-19T02:36:47;19.30;84.70
1786;DHT22;890;48.158;11.540;2023-09-19T02:39:13;19.20;84.60
1786;DHT22;890;48.158;11.540;2023-09-19T02:41:38;19.30;84.80
1786;DHT22;890;48.158;11.540;2023-09-19T02:44:04;19.20;84.70
1786;DHT22;890;48.158;11.540;2023-09-19T02:46:35;19.20;84.70
1786;DHT22;890;48.158;11.540;2023-09-19T02:49:04;19.20;84.90
1786;DHT22;890;48.158;11.540;2023-09-19T02:51:32;19.10;84.80
1786;DHT22;890;48.158;11.540;2023-09-19T02:54:00;19.10;84.90
1786;DHT22;890;48.158;11.540;2023-09-19T02:56:26;19.00;85.20
1786;DHT22;890;48.158;11.540;2023-09-19T02:58:52;19.00;85.20
1786;DHT22;890;48.158;11.540;2023-09-19T03:01:18;19.00;85.50
1786;DHT22;890;48.158;11.540;2023-09-19T03:03:44;19.00;85.40
1786;DHT22;890;48.158;11.540;2023-09-19T03:06:10;19.10;85.30
1786;DHT22;890;48.158;11.540;2023-09-19T03:08:39;19.10;85.20
1786;DHT22;890;48.158;11.540;2023-09-19T03:11:10;19.10;85.00
1786;DHT22;890;48.158;11.540;2023-09-19T03:13:37;19.10;85.00
1786;DHT22;890;48.158;11.540;2023-09-19T03:16:04;19.00;85.10
1786;DHT22;890;48.158;11.540;2023-09-19T03:18:34;18.90;85.20
1786;DHT22;890;48.158;11.540;2023-09-19T03:21:00;18.90;86.10
1786;DHT22;890;48.158;11.540;2023-09-19T03:23:26;18.70;85.60
1786;DHT22;890;48.158;11.540;2023-09-19T03:25:53;18.70;85.70
1786;DHT22;890;48.158;11.540;2023-09-19T03:28:18;18.70;85.80
1786;DHT22;890;48.158;11.540;2023-09-19T03:30:45;18.60;85.70
1786;DHT22;890;48.158;11.540;2023-09-19T03:33:12;18.60;85.80
1786;DHT22;890;48.158;11.540;2023-09-19T03:35:39;18.60;85.80
1786;DHT22;890;48.158;11.540;2023-09-19T03:38:05;18.60;86.00
1786;DHT22;890;48.158;11.540;2023-09-19T03:40:30;18.60;85.90
1786;DHT22;890;48.158;11.540;2023-09-19T03:42:56;18.60;86.70
1786;DHT22;890;48.158;11.540;2023-09-19T03:45:22;18.60;86.70
1786;DHT22;890;48.158;11.540;2023-09-19T03:47:47;18.60;86.00
1786;DHT22;890;48.158;11.540;2023-09-19T03:50:13;18.60;86.00
1786;DHT22;890;48.158;11.540;2023-09-19T03:52:44;18.60;86.10
1786;DHT22;890;48.158;11.540;2023-09-19T03:55:09;18.60;86.00
1786;DHT22;890;48.158;11.540;2023-09-19T03:57:36;18.60;86.20
1786;DHT22;890;48.158;11.540;2023-09-19T04:00:03;18.60;86.10
1786;DHT22;890;48.158;11.540;2023-09-19T04:02:30;18.60;86.20
1786;DHT22;890;48.158;11.540;2023-09-19T04:04:58;18.70;86.20
1786;DHT22;890;48.158;11.540;2023-09-19T04:07:24;18.70;86.30
1786;DHT22;890;48.158;11.540;2023-09-19T04:09:54;18.70;86.90
1786;DHT22;890;48.158;11.540;2023-09-19T04:12:20;18.70;86.10
1786;DHT22;890;48.158;11.540;2023-09-19T04:14:46;18.60;86.20
1786;DHT22;890;48.158;11.540;2023-09-19T04:17:11;18.60;86.40
1786;DHT22;890;48.158;11.540;2023-09-19T04:19:37;18.60;86.30
1786;DHT22;890;48.158;11.540;2023-09-19T04:22:03;18.60;86.50
1786;DHT22;890;48.158;11.540;2023-09-19T04:24:29;18.60;86.50
1786;DHT22;890;48.158;11.540;2023-09-19T04:26:55;18.60;86.50
1786;DHT22;890;48.158;11.540;2023-09-19T04:29:22;18.50;86.50
1786;DHT22;890;48.158;11.540;2023-09-19T04:31:48;18.50;86.60
1786;DHT22;890;48.158;11.540;2023-09-19T04:34:13;18.40;86.70
1786;DHT22;890;48.158;11.540;2023-09-19T04:36:43;18.40;86.60
1786;DHT22;890;48.158;11.540;2023-09-19T04:39:09;18.40;86.60
1786;DHT22;890;48.158;11.540;2023-09-19T04:41:36;18.50;86.80
1786;DHT22;890;48.158;11.540;2023-09-19T04:44:07;18.40;86.80
1786;DHT22;890;48.158;11.540;2023-09-19T04:46:33;18.50;87.00
1786;DHT22;890;48.158;11.540;2023-09-19T04:48:59;18.40;86.80
1786;DHT22;890;48.158;11.540;2023-09-19T04:51:26;18.40;86.60
1786;DHT22;890;48.158;11.540;2023-09-19T04:53:54;18.40;86.80
1786;DHT22;890;48.158;11.540;2023-09-19T04:56:20;18.40;87.00
1786;DHT22;890;48.158;11.540;2023-09-19T04:58:46;18.40;87.10
1786;DHT22;890;48.158;11.540;2023-09-19T05:01:12;18.40;87.10
1786;DHT22;890;48.158;11.540;2023-09-19T05:03:40;18.40;86.90
1786;DHT22;890;48.158;11.540;2023-09-19T05:06:06;18.50;87.50
1786;DHT22;890;48.158;11.540;2023-09-19T05:08:31;18.40;87.40
1786;DHT22;890;48.158;11.540;2023-09-19T05:10:57;18.40;86.80
1786;DHT22;890;48.158;11.540;2023-09-19T05:13:23;18.50;86.70
1786;DHT22;890;48.158;11.540;2023-09-19T05:15:49;18.50;86.70
1786;DHT22;890;48.158;11.540;2023-09-19T05:18:18;18.50;86.60
1786;DHT22;890;48.158;11.540;2023-09-19T05:20:43;18.50;86.60
1786;DHT22;890;48.158;11.540;2023-09-19T05:23:09;18.50;86.50
1786;DHT22;890;48.158;11.540;2023-09-19T05:25:38;18.50;86.50
1786;DHT22;890;48.158;11.540;2023-09-19T05:28:09;18.50;86.50
1786;DHT22;890;48.158;11.540;2023-09-19T05:30:36;18.50;86.50
1786;DHT22;890;48.158;11.540;2023-09-19T05:33:05;18.60;86.50
1786;DHT22;890;48.158;11.540;2023-09-19T05:35:31;18.60;86.30
1786;DHT22;890;48.158;11.540;2023-09-19T05:37:58;18.60;86.00
1786;DHT22;890;48.158;11.540;2023-09-19T05:40:24;18.60;86.00
1786;DHT22;890;48.158;11.540;2023-09-19T05:42:50;18.60;86.00
1786;DHT22;890;48.158;11.540;2023-09-19T05:45:16;18.60;85.90
1786;DHT22;890;48.158;11.540;2023-09-19T05:47:51;18.50;86.70
1786;DHT22;890;48.158;11.540;2023-09-19T05:50:18;18.50;85.90
1786;DHT22;890;48.158;11.540;2023-09-19T05:52:51;18.50;86.00
1786;DHT22;890;48.158;11.540;2023-09-19T05:55:17;18.40;85.80
1786;DHT22;890;48.158;11.540;2023-09-19T05:57:43;18.70;86.10
1786;DHT22;890;48.158;11.540;2023-09-19T06:00:14;18.50;86.00
1786;DHT22;890;48.158;11.540;2023-09-19T06:02:40;18.60;86.00
1786;DHT22;890;48.158;11.540;2023-09-19T06:05:06;18.60;86.00
1786;DHT22;890;48.158;11.540;2023-09-19T06:07:36;18.70;86.10
1786;DHT22;890;48.158;11.540;2023-09-19T06:10:06;18.70;85.90
1786;DHT22;890;48.158;11.540;2023-09-19T06:12:39;18.80;86.00
1786;DHT22;890;48.158;11.540;2023-09-19T06:15:05;18.90;85.60
1786;DHT22;890;48.158;11.540;2023-09-19T06:17:31;19.00;85.30
1786;DHT22;890;48.158;11.540;2023-09-19T06:19:57;19.00;85.20
1786;DHT22;890;48.158;11.540;2023-09-19T06:22:23;19.00;84.90
1786;DHT22;890;48.158;11.540;2023-09-19T06:24:50;19.00;84.90
1786;DHT22;890;48.158;11.540;2023-09-19T06:27:15;19.00;84.90
1786;DHT22;890;48.158;11.540;2023-09-19T06:29:42;19.00;85.70
1786;DHT22;890;48.158;11.540;2023-09-19T06:32:08;19.10;84.80
1786;DHT22;890;48.158;11.540;2023-09-19T06:34:35;19.10;84.80
1786;DHT22;890;48.158;11.540;2023-09-19T06:37:01;19.10;84.60
1786;DHT22;890;48.158;11.540;2023-09-19T06:39:28;19.20;84.30
1786;DHT22;890;48.158;11.540;2023-09-19T06:41:54;19.10;84.30
1786;DHT22;890;48.158;11.540;2023-09-19T06:44:19;19.10;84.50
1786;DHT22;890;48.158;11.540;2023-09-19T06:46:50;19.10;84.70
1786;DHT22;890;48.158;11.540;2023-09-19T06:49:17;19.10;84.40
1786;DHT22;890;48.158;11.540;2023-09-19T06:51:42;19.20;84.60
1786;DHT22;890;48.158;11.540;2023-09-19T06:54:09;19.20;84.40
1786;DHT22;890;48.158;11.540;2023-09-19T06:56:35;19.10;84.30
1786;DHT22;890;48.158;11.540;2023-09-19T06:59:00;19.20;85.10
1786;DHT22;890;48.158;11.540;2023-09-19T07:01:28;19.30;84.30
1786;DHT22;890;48.158;11.540;2023-09-19T07:03:53;19.50;84.50
1786;DHT22;890;48.158;11.540;2023-09-19T07:06:20;19.50;84.20
1786;DHT22;890;48.158;11.540;2023-09-19T07:08:45;19.70;83.70
1786;DHT22;890;48.158;11.540;2023-09-19T07:11:11;19.90;83.30
1786;DHT22;890;48.158;11.540;2023-09-19T07:13:38;19.90;82.80
1786;DHT22;890;48.158;11.540;2023-09-19T07:16:04;19.90;82.80
1786;DHT22;890;48.158;11.540;2023-09-19T07:18:29;19.70;82.90
1786;DHT22;890;48.158;11.540;2023-09-19T07:20:58;19.60;83.00
1786;DHT22;890;48.158;11.540;2023-09-19T07:23:30;19.50;83.20
1786;DHT22;890;48.158;11.540;2023-09-19T07:26:00;19.60;83.60
1786;DHT22;890;48.158;11.540;2023-09-19T07:28:26;19.60;83.60
1786;DHT22;890;48.158;11.540;2023-09-19T07:30:53;19.80;83.10
1786;DHT22;890;48.158;11.540;2023-09-19T07:33:19;19.90;83.00
1786;DHT22;890;48.158;11.540;2023-09-19T07:35:46;20.00;83.80
1786;DHT22;890;48.158;11.540;2023-09-19T07:38:12;20.10;83.20
1786;DHT22;890;48.158;11.540;2023-09-19T07:40:38;20.30;83.10
1786;DHT22;890;48.158;11.540;2023-09-19T07:43:03;20.40;82.70
1786;DHT22;890;48.158;11.540;2023-09-19T07:45:30;20.90;82.90
1786;DHT22;890;48.158;11.540;2023-09-19T07:47:57;20.20;82.40
1786;DHT22;890;48.158;11.540;2023-09-19T07:50:23;20.00;82.40
1786;DHT22;890;48.158;11.540;2023-09-19T07:52:49;20.00;82.80
1786;DHT22;890;48.158;11.540;2023-09-19T07:55:19;20.10;82.60
1786;DHT22;890;48.158;11.540;2023-09-19T07:57:48;20.20;82.70
1786;DHT22;890;48.158;11.540;2023-09-19T08:00:14;20.30;82.90
1786;DHT22;890;48.158;11.540;2023-09-19T08:02:40;20.50;82.30
1786;DHT22;890;48.158;11.540;2023-09-19T08:05:08;20.50;81.70
1786;DHT22;890;48.158;11.540;2023-09-19T08:07:37;20.60;81.80
1786;DHT22;890;48.158;11.540;2023-09-19T08:10:04;20.60;81.80
1786;DHT22;890;48.158;11.540;2023-09-19T08:12:33;20.70;81.70
1786;DHT22;890;48.158;11.540;2023-09-19T08:15:02;20.80;81.40
1786;DHT22;890;48.158;11.540;2023-09-19T08:17:28;20.80;80.70
1786;DHT22;890;48.158;11.540;2023-09-19T08:19:53;20.70;80.60
1786;DHT22;890;48.158;11.540;2023-09-19T08:22:22;20.70;81.00
1786;DHT22;890;48.158;11.540;2023-09-19T08:24:49;20.60;81.10
1786;DHT22;890;48.158;11.540;2023-09-19T08:27:14;20.60;81.20
1786;DHT22;890;48.158;11.540;2023-09-19T08:29:40;20.60;80.90
1786;DHT22;890;48.158;11.540;2023-09-19T08:32:07;20.60;81.60
1786;DHT22;890;48.158;11.540;2023-09-19T08:34:33;20.70;80.30
1786;DHT22;890;48.158;11.540;2023-09-19T08:36:59;20.70;80.10
1786;DHT22;890;48.158;11.540;2023-09-19T08:39:25;20.80;80.20
1786;DHT22;890;48.158;11.540;2023-09-19T08:41:58;20.70;79.60
1786;DHT22;890;48.158;11.540;2023-09-19T08:44:28;20.70;79.30
1786;DHT22;890;48.158;11.540;2023-09-19T08:47:10;20.70;78.90
1786;DHT22;890;48.158;11.540;2023-09-19T08:50:47;20.70;78.50
1786;DHT22;890;48.158;11.540;2023-09-19T08:52:47;20.70;78.50
1786;DHT22;890;48.158;11.540;2023-09-19T08:55:16;20.80;78.60
1786;DHT22;890;48.158;11.540;2023-09-19T08:57:49;20.90;78.20
1786;DHT22;890;48.158;11.540;2023-09-19T09:00:16;21.00;77.70
1786;DHT22;890;48.158;11.540;2023-09-19T09:02:47;21.50;79.30
1786;DHT22;890;48.158;11.540;2023-09-19T09:05:13;21.90;79.40
1786;DHT22;890;48.158;11.540;2023-09-19T09:07:41;22.00;77.30
1786;DHT22;890;48.158;11.540;2023-09-19T09:10:07;21.80;76.20
1786;DHT22;890;48.158;11.540;2023-09-19T09:12:35;21.60;76.10
1786;DHT22;890;48.158;11.540;2023-09-19T09:15:03;21.40;75.50
1786;DHT22;890;48.158;11.540;2023-09-19T09:17:29;21.80;83.10
1786;DHT22;890;48.158;11.540;2023-09-19T09:19:55;22.60;83.50
1786;DHT22;890;48.158;11.540;2023-09-19T09:22:21;23.00;78.60
1786;DHT22;890;48.158;11.540;2023-09-19T09:24:57;23.00;73.70
1786;DHT22;890;48.158;11.540;2023-09-19T09:27:30;22.50;71.40
1786;DHT22;890;48.158;11.540;2023-09-19T09:29:58;23.10;79.60
1786;DHT22;890;48.158;11.540;2023-09-19T09:32:29;24.50;84.40
1786;DHT22;890;48.158;11.540;2023-09-19T09:35:00;25.20;79.50
1786;DHT22;890;48.158;11.540;2023-09-19T09:37:26;25.60;77.20
1786;DHT22;890;48.158;11.540;2023-09-19T09:42:34;27.50;74.20
1786;DHT22;890;48.158;11.540;2023-09-19T09:47:53;28.40;66.30
1786;DHT22;890;48.158;11.540;2023-09-19T09:50:32;29.00;68.20
1786;DHT22;890;48.158;11.540;2023-09-19T09:53:29;29.30;65.20
1786;DHT22;890;48.158;11.540;2023-09-19T09:56:08;28.60;56.20
1786;DHT22;890;48.158;11.540;2023-09-19T10:01:13;27.50;57.60
1786;DHT22;890;48.158;11.540;2023-09-19T10:03:41;27.30;57.30
1786;DHT22;890;48.158;11.540;2023-09-19T10:06:15;26.50;55.90
1786;DHT22;890;48.158;11.540;2023-09-19T10:09:09;25.60;55.90
1786;DHT22;890;48.158;11.540;2023-09-19T10:11:44;24.70;57.70
1786;DHT22;890;48.158;11.540;2023-09-19T10:14:16;24.30;58.70
1786;DHT22;890;48.158;11.540;2023-09-19T10:16:53;24.70;61.10
1786;DHT22;890;48.158;11.540;2023-09-19T10:19:45;25.10;60.80
1786;DHT22;890;48.158;11.540;2023-09-19T10:22:12;26.20;62.70
1786;DHT22;890;48.158;11.540;2023-09-19T10:24:47;27.40;63.10
1786;DHT22;890;48.158;11.540;2023-09-19T10:27:13;28.30;60.10
1786;DHT22;890;48.158;11.540;2023-09-19T10:29:44;28.50;56.70
1786;DHT22;890;48.158;11.540;2023-09-19T10:32:14;28.60;56.00
1786;DHT22;890;48.158;11.540;2023-09-19T10:34:49;28.40;53.40
1786;DHT22;890;48.158;11.540;2023-09-19T10:37:16;27.40;52.80
1786;DHT22;890;48.158;11.540;2023-09-19T10:39:46;26.90;54.30
1786;DHT22;890;48.158;11.540;2023-09-19T10:42:19;26.40;54.30
1786;DHT22;890;48.158;11.540;2023-09-19T10:44:50;25.90;54.30
1786;DHT22;890;48.158;11.540;2023-09-19T10:47:19;25.20;55.50
1786;DHT22;890;48.158;11.540;2023-09-19T10:49:46;24.60;56.70
1786;DHT22;890;48.158;11.540;2023-09-19T10:52:20;25.10;59.60
1786;DHT22;890;48.158;11.540;2023-09-19T10:54:48;25.90;60.70
1786;DHT22;890;48.158;11.540;2023-09-19T10:57:24;26.90;60.00
1786;DHT22;890;48.158;11.540;2023-09-19T11:03:24;27.90;55.80
1786;DHT22;890;48.158;11.540;2023-09-19T11:06:09;28.80;55.30
1786;DHT22;890;48.158;11.540;2023-09-19T11:09:02;29.50;53.70
1786;DHT22;890;48.158;11.540;2023-09-19T11:14:37;29.30;53.10
1786;DHT22;890;48.158;11.540;2023-09-19T11:30:35;30.50;46.60
1786;DHT22;890;48.158;11.540;2023-09-19T11:43:52;27.70;46.10
1786;DHT22;890;48.158;11.540;2023-09-19T11:46:21;27.10;46.90
1786;DHT22;890;48.158;11.540;2023-09-19T11:48:48;26.60;47.60
1786;DHT22;890;48.158;11.540;2023-09-19T11:51:22;26.20;48.30
1786;DHT22;890;48.158;11.540;2023-09-19T11:53:53;25.80;49.10
1786;DHT22;890;48.158;11.540;2023-09-19T11:56:26;25.30;49.40
1786;DHT22;890;48.158;11.540;2023-09-19T11:58:56;24.90;50.40
1786;DHT22;890;48.158;11.540;2023-09-19T12:01:32;24.80;51.40
1786;DHT22;890;48.158;11.540;2023-09-19T12:04:00;25.00;52.10
1786;DHT22;890;48.158;11.540;2023-09-19T12:06:28;25.80;53.70
1786;DHT22;890;48.158;11.540;2023-09-19T12:09:02;26.50;53.70
1786;DHT22;890;48.158;11.540;2023-09-19T12:11:32;27.00;51.10
1786;DHT22;890;48.158;11.540;2023-09-19T12:13:59;26.90;49.70
1786;DHT22;890;48.158;11.540;2023-09-19T12:16:26;26.50;49.10
1786;DHT22;890;48.158;11.540;2023-09-19T12:18:56;26.00;49.60
1786;DHT22;890;48.158;11.540;2023-09-19T12:21:26;25.70;49.50
1786;DHT22;890;48.158;11.540;2023-09-19T12:26:45;25.00;50.40
1786;DHT22;890;48.158;11.540;2023-09-19T12:29:17;24.80;51.10
1786;DHT22;890;48.158;11.540;2023-09-19T12:31:58;24.60;51.30
1786;DHT22;890;48.158;11.540;2023-09-19T12:34:26;24.40;51.50
1786;DHT22;890;48.158;11.540;2023-09-19T12:37:13;24.40;51.80
1786;DHT22;890;48.158;11.540;2023-09-19T12:39:53;24.40;51.90
1786;DHT22;890;48.158;11.540;2023-09-19T12:42:22;24.30;52.20
1786;DHT22;890;48.158;11.540;2023-09-19T12:44:49;24.10;52.80
1786;DHT22;890;48.158;11.540;2023-09-19T12:47:20;24.00;53.10
1786;DHT22;890;48.158;11.540;2023-09-19T12:50:14;24.00;53.50
1786;DHT22;890;48.158;11.540;2023-09-19T12:52:47;24.00;53.80
1786;DHT22;890;48.158;11.540;2023-09-19T12:55:28;24.00;53.80
1786;DHT22;890;48.158;11.540;2023-09-19T13:00:39;24.20;53.90
1786;DHT22;890;48.158;11.540;2023-09-19T13:05:58;24.00;55.90
1786;DHT22;890;48.158;11.540;2023-09-19T13:08:35;23.80;56.50
1786;DHT22;890;48.158;11.540;2023-09-19T13:13:41;23.30;55.10
1786;DHT22;890;48.158;11.540;2023-09-19T13:16:11;23.20;54.90
1786;DHT22;890;48.158;11.540;2023-09-19T13:21:16;22.90;54.60
1786;DHT22;890;48.158;11.540;2023-09-19T13:23:53;22.80;54.60
1786;DHT22;890;48.158;11.540;2023-09-19T13:26:22;23.20;58.70
1786;DHT22;890;48.158;11.540;2023-09-19T13:28:48;23.20;57.60
1786;DHT22;890;48.158;11.540;2023-09-19T13:31:15;23.10;58.00
1786;DHT22;890;48.158;11.540;2023-09-19T13:33:48;23.10;58.00
1786;DHT22;890;48.158;11.540;2023-09-19T13:36:14;23.00;58.20
1786;DHT22;890;48.158;11.540;2023-09-19T13:38:41;23.00;58.10
1786;DHT22;890;48.158;11.540;2023-09-19T13:41:11;23.10;58.10
1786;DHT22;890;48.158;11.540;2023-09-19T13:43:37;23.00;58.10
1786;DHT22;890;48.158;11.540;2023-09-19T13:46:04;23.00;58.30
1786;DHT22;890;48.158;11.540;2023-09-19T13:48:30;22.90;58.20
1786;DHT22;890;48.158;11.540;2023-09-19T13:50:56;23.10;58.30
1786;DHT22;890;48.158;11.540;2023-09-19T13:53:22;23.30;58.10
1786;DHT22;890;48.158;11.540;2023-09-19T13:55:48;23.50;58.00
1786;DHT22;890;48.158;11.540;2023-09-19T13:58:14;23.70;57.80
1786;DHT22;890;48.158;11.540;2023-09-19T14:00:40;23.70;56.90
1786;DHT22;890;48.158;11.540;2023-09-19T14:03:06;23.70;56.80
1786;DHT22;890;48.158;11.540;2023-09-19T14:05:32;23.70;56.50
1786;DHT22;890;48.158;11.540;2023-09-19T14:07:58;23.70;56.20
1786;DHT22;890;48.158;11.540;2023-09-19T14:10:25;23.80;55.90
1786;DHT22;890;48.158;11.540;2023-09-19T14:12:52;23.70;55.80
1786;DHT22;890;48.158;11.540;2023-09-19T14:15:18;23.80;55.30
1786;DHT22;890;48.158;11.540;2023-09-19T14:17:43;23.70;55.10
1786;DHT22;890;48.158;11.540;2023-09-19T14:20:12;23.60;55.40
1786;DHT22;890;48.158;11.540;2023-09-19T14:22:38;23.60;55.60
1786;DHT22;890;48.158;11.540;2023-09-19T14:25:04;23.60;56.00
1786;DHT22;890;48.158;11.540;2023-09-19T14:27:30;23.60;55.90
1786;DHT22;890;48.158;11.540;2023-09-19T14:29:56;23.60;56.20
1786;DHT22;890;48.158;11.540;2023-09-19T14:32:23;23.60;56.20
1786;DHT22;890;48.158;11.540;2023-09-19T14:34:48;23.50;56.50
1786;DHT22;890;48.158;11.540;2023-09-19T14:37:14;23.40;56.30
1786;DHT22;890;48.158;11.540;2023-09-19T14:39:42;23.30;56.70
1786;DHT22;890;48.158;11.540;2023-09-19T14:42:10;23.30;56.80
1786;DHT22;890;48.158;11.540;2023-09-19T14:44:36;23.30;56.60
1786;DHT22;890;48.158;11.540;2023-09-19T14:47:03;23.30;56.40
1786;DHT22;890;48.158;11.540;2023-09-19T14:49:33;23.30;56.20
1786;DHT22;890;48.158;11.540;2023-09-19T14:51:59;23.20;56.40
1786;DHT22;890;48.158;11.540;2023-09-19T14:54:24;23.10;56.50
1786;DHT22;890;48.158;11.540;2023-09-19T14:56:50;23.20;56.70
1786;DHT22;890;48.158;11.540;2023-09-19T14:59:30;23.20;56.70
1786;DHT22;890;48.158;11.540;2023-09-19T15:01:55;23.20;56.60
1786;DHT22;890;48.158;11.540;2023-09-19T15:04:21;23.20;56.90
1786;DHT22;890;48.158;11.540;2023-09-19T15:06:47;23.10;56.60
1786;DHT22;890;48.158;11.540;2023-09-19T15:09:13;23.20;56.80
1786;DHT22;890;48.158;11.540;2023-09-19T15:11:39;23.20;56.80
1786;DHT22;890;48.158;11.540;2023-09-19T15:14:04;23.30;57.00
1786;DHT22;890;48.158;11.540;2023-09-19T15:16:30;23.30;56.70
1786;DHT22;890;48.158;11.540;2023-09-19T15:18:56;23.20;57.10
1786;DHT22;890;48.158;11.540;2023-09-19T15:21:22;23.10;57.30
1786;DHT22;890;48.158;11.540;2023-09-19T15:23:48;23.00;57.30
1786;DHT22;890;48.158;11.540;2023-09-19T15:26:14;23.20;57.20
1786;DHT22;890;48.158;11.540;2023-09-19T15:28:45;23.30;57.00
1786;DHT22;890;48.158;11.540;2023-09-19T15:31:12;23.20;56.40
1786;DHT22;890;48.158;11.540;2023-09-19T15:33:38;23.10;56.30
1786;DHT22;890;48.158;11.540;2023-09-19T15:36:12;23.10;56.30
1786;DHT22;890;48.158;11.540;2023-09-19T15:38:57;23.10;56.30
1786;DHT22;890;48.158;11.540;2023-09-19T15:41:24;23.00;56.00
1786;DHT22;890;48.158;11.540;2023-09-19T15:43:50;23.00;56.70
1786;DHT22;890;48.158;11.540;2023-09-19T15:46:15;23.00;56.10
1786;DHT22;890;48.158;11.540;2023-09-19T15:48:41;23.00;56.70
1786;DHT22;890;48.158;11.540;2023-09-19T15:51:07;23.00;56.30
1786;DHT22;890;48.158;11.540;2023-09-19T15:56:10;23.00;56.30
1786;DHT22;890;48.158;11.540;2023-09-19T15:58:46;22.90;56.30
1786;DHT22;890;48.158;11.540;2023-09-19T16:01:12;22.80;55.90
1786;DHT22;890;48.158;11.540;2023-09-19T16:03:39;22.80;55.90
1786;DHT22;890;48.158;11.540;2023-09-19T16:06:19;22.80;55.90
1786;DHT22;890;48.158;11.540;2023-09-19T16:08:50;22.80;55.90
1786;DHT22;890;48.158;11.540;2023-09-19T16:11:17;22.60;56.00
1786;DHT22;890;48.158;11.540;2023-09-19T16:13:43;22.60;56.30
1786;DHT22;890;48.158;11.540;2023-09-19T16:16:12;22.60;56.40
1786;DHT22;890;48.158;11.540;2023-09-19T16:18:38;22.50;56.40
1786;DHT22;890;48.158;11.540;2023-09-19T16:21:05;22.50;56.50
1786;DHT22;890;48.158;11.540;2023-09-19T16:23:33;22.50;56.70
1786;DHT22;890;48.158;11.540;2023-09-19T16:26:09;22.50;56.70
1786;DHT22;890;48.158;11.540;2023-09-19T16:28:39;22.50;56.80
1786;DHT22;890;48.158;11.540;2023-09-19T16:31:05;22.40;56.90
1786;DHT22;890;48.158;11.540;2023-09-19T16:33:33;22.40;56.90
1786;DHT22;890;48.158;11.540;2023-09-19T16:35:59;22.30;56.70
1786;DHT22;890;48.158;11.540;2023-09-19T16:38:26;22.20;56.70
1786;DHT22;890;48.158;11.540;2023-09-19T16:40:53;22.20;56.90
1786;DHT22;890;48.158;11.540;2023-09-19T16:43:19;22.20;56.90
1786;DHT22;890;48.158;11.540;2023-09-19T16:46:01;22.10;56.90
1786;DHT22;890;48.158;11.540;2023-09-19T16:48:27;22.10;57.10
1786;DHT22;890;48.158;11.540;2023-09-19T16:50:56;22.00;57.10
1786;DHT22;890;48.158;11.540;2023-09-19T16:53:24;22.00;57.20
1786;DHT22;890;48.158;11.540;2023-09-19T16:55:50;22.00;57.30
1786;DHT22;890;48.158;11.540;2023-09-19T16:58:16;21.90;57.30
1786;DHT22;890;48.158;11.540;2023-09-19T17:00:43;21.80;57.90
1786;DHT22;890;48.158;11.540;2023-09-19T17:03:10;21.80;57.50
1786;DHT22;890;48.158;11.540;2023-09-19T17:05:39;21.80;57.60
1786;DHT22;890;48.158;11.540;2023-09-19T17:08:08;21.70;57.50
1786;DHT22;890;48.158;11.540;2023-09-19T17:10:35;21.70;57.80
1786;DHT22;890;48.158;11.540;2023-09-19T17:13:02;21.70;57.90
1786;DHT22;890;48.158;11.540;2023-09-19T17:15:31;21.60;57.90
1786;DHT22;890;48.158;11.540;2023-09-19T17:17:57;21.60;58.00
1786;DHT22;890;48.158;11.540;2023-09-19T17:20:23;21.60;58.00
1786;DHT22;890;48.158;11.540;2023-09-19T17:22:49;21.60;58.20
1786;DHT22;890;48.158;11.540;2023-09-19T17:25:16;21.60;58.10
1786;DHT22;890;48.158;11.540;2023-09-19T17:27:42;21.60;58.40